Redland, Florida
Current Conditions -  °F | °C
As of 12:58 PM on Tuesday 21 Oct 2014 (Local Time) from KHST Reporting Station
Clear Clear  
Wind Chill: 77°   Ceiling: Unl
Heat Index: 78°   Visibility: 10mi
Dew Point: 74°   Wind: 9mph
Humidity: 91%   Direction: 180°S
Pressure: 29.97"   Gusts: NA
Location:  25.5222°N, 80.3827°W
Report Text: KHST 211658Z AUTO 18008KT 10SM CLR 25/23 A2997 RMK AO2 DZB1621E1627 SLP152 P0001 T02500234
Loading
Personal Weather Stations






























Interactive Weather Map
Tropical Storm Tracking
New forecast layout! Learn more

10-Day Weather Forecast

Advertisements
Track Severe Weather on mobile